createdAt,value
2018-04-30T00:01:41.281Z,17.80
2018-04-30T00:04:08.749Z,17.80
2018-04-30T00:06:36.208Z,17.80
2018-04-30T00:09:03.675Z,17.70
2018-04-30T00:11:31.214Z,17.70
2018-04-30T00:13:58.669Z,17.70
2018-04-30T00:16:26.135Z,17.80
2018-04-30T00:18:53.760Z,17.70
2018-04-30T00:21:21.366Z,17.70
2018-04-30T00:23:48.821Z,17.60
2018-04-30T00:26:16.448Z,17.60
2018-04-30T00:28:43.929Z,17.50
2018-04-30T00:31:11.397Z,17.50
2018-04-30T00:33:38.925Z,17.50
2018-04-30T00:36:06.393Z,17.50
2018-04-30T00:38:33.929Z,17.50
2018-04-30T00:41:01.543Z,17.50
2018-04-30T00:43:29.072Z,17.50
2018-04-30T00:45:56.546Z,17.50
2018-04-30T00:48:24.022Z,17.50
2018-04-30T00:50:51.497Z,17.60
2018-04-30T00:53:19.202Z,17.70
2018-04-30T00:55:46.663Z,17.80
2018-04-30T00:58:14.124Z,18.00
2018-04-30T01:00:41.883Z,18.00
2018-04-30T01:03:09.352Z,18.10
2018-04-30T01:05:36.809Z,18.20
2018-04-30T01:08:04.285Z,18.30
2018-04-30T01:10:31.749Z,18.30
2018-04-30T01:12:59.221Z,18.30
2018-04-30T01:15:26.681Z,18.40
2018-04-30T01:17:54.181Z,18.40
2018-04-30T01:20:21.628Z,18.40
2018-04-30T01:22:49.098Z,18.40
2018-04-30T01:25:16.567Z,18.40
2018-04-30T01:27:44.033Z,18.40
2018-04-30T01:30:12.249Z,18.40
2018-04-30T01:32:39.697Z,18.30
2018-04-30T01:35:07.355Z,18.30
2018-04-30T01:37:34.797Z,18.20
2018-04-30T01:40:02.274Z,18.20
2018-04-30T01:42:29.730Z,18.10
2018-04-30T01:44:57.189Z,18.00
2018-04-30T01:47:24.645Z,18.00
2018-04-30T01:49:52.115Z,18.00
2018-04-30T01:52:19.573Z,18.00
2018-04-30T01:54:47.041Z,18.00
2018-04-30T01:57:14.488Z,17.90
2018-04-30T01:59:41.957Z,17.80
2018-04-30T02:02:09.413Z,17.90
2018-04-30T02:04:36.880Z,17.80
2018-04-30T02:07:04.334Z,17.80
2018-04-30T02:09:31.807Z,17.80
2018-04-30T02:11:59.271Z,17.80
2018-04-30T02:14:26.744Z,17.70
2018-04-30T02:16:54.252Z,17.70
2018-04-30T02:19:22.337Z,17.70
2018-04-30T02:21:49.973Z,17.60
2018-04-30T02:24:17.433Z,17.60
2018-04-30T02:26:44.897Z,17.60
2018-04-30T02:29:12.370Z,17.60
2018-04-30T02:31:39.860Z,17.60
2018-04-30T02:34:07.323Z,17.50
2018-04-30T02:36:34.780Z,17.50
2018-04-30T02:39:02.237Z,17.50
2018-04-30T02:41:29.749Z,17.50
2018-04-30T02:43:57.387Z,17.50
2018-04-30T02:46:24.980Z,17.50
2018-04-30T02:48:52.727Z,17.40
2018-04-30T02:51:20.201Z,17.40
2018-04-30T02:53:47.848Z,17.40
2018-04-30T02:56:15.415Z,17.40
2018-04-30T02:58:42.882Z,17.40
2018-04-30T03:01:10.442Z,17.30
2018-04-30T03:03:38.690Z,17.30
2018-04-30T03:06:06.151Z,17.20
2018-04-30T03:08:33.930Z,17.20
2018-04-30T03:11:01.388Z,17.20
2018-04-30T03:13:29.040Z,17.20
2018-04-30T03:15:56.524Z,17.20
2018-04-30T03:18:24.893Z,17.20
2018-04-30T03:20:53.275Z,17.10
2018-04-30T03:23:20.916Z,17.10
2018-04-30T03:25:48.577Z,17.10
2018-04-30T03:28:16.083Z,17.10
2018-04-30T03:30:43.680Z,17.10
2018-04-30T03:33:11.158Z,17.10
2018-04-30T03:35:38.713Z,17.00
2018-04-30T03:38:06.163Z,17.00
2018-04-30T03:40:33.929Z,16.90
2018-04-30T03:43:01.385Z,16.90
2018-04-30T03:45:29.059Z,16.90
2018-04-30T03:47:56.509Z,16.90
2018-04-30T03:50:23.975Z,16.80
2018-04-30T03:52:51.430Z,16.70
2018-04-30T03:55:19.288Z,16.70
2018-04-30T03:57:46.758Z,16.60
2018-04-30T04:00:26.034Z,16.60
2018-04-30T04:03:05.373Z,16.70
2018-04-30T04:05:44.666Z,16.60
2018-04-30T04:08:12.113Z,16.60
2018-04-30T04:10:39.572Z,16.60
2018-04-30T04:13:07.038Z,16.60
2018-04-30T04:15:34.489Z,16.50
2018-04-30T04:18:01.973Z,16.50
2018-04-30T04:20:29.429Z,16.50
2018-04-30T04:22:56.900Z,16.50
2018-04-30T04:25:24.354Z,16.40
2018-04-30T04:27:51.817Z,16.40
2018-04-30T04:30:19.273Z,16.40
2018-04-30T04:32:46.744Z,16.50
2018-04-30T04:35:14.239Z,16.40
2018-04-30T04:37:41.902Z,16.40
2018-04-30T04:40:09.359Z,16.40
2018-04-30T04:42:36.908Z,16.40
2018-04-30T04:45:04.592Z,16.50
2018-04-30T04:47:32.131Z,16.40
2018-04-30T04:49:59.584Z,16.40
2018-04-30T04:52:27.037Z,16.40
2018-04-30T04:54:54.515Z,16.30
2018-04-30T04:57:21.992Z,16.30
2018-04-30T04:59:49.572Z,16.20
2018-04-30T05:02:17.022Z,16.20
2018-04-30T05:04:44.481Z,16.10
2018-04-30T05:07:11.933Z,16.10
2018-04-30T05:09:39.401Z,16.10
2018-04-30T05:12:06.876Z,15.90
2018-04-30T05:14:34.334Z,15.90
2018-04-30T05:17:01.794Z,16.00
2018-04-30T05:19:29.252Z,16.00
2018-04-30T05:21:56.709Z,16.00
2018-04-30T05:24:24.165Z,15.90
2018-04-30T05:26:51.620Z,15.90
2018-04-30T05:29:19.081Z,15.80
2018-04-30T05:31:46.664Z,15.80
2018-04-30T05:34:14.418Z,15.70
2018-04-30T05:36:42.074Z,15.70
2018-04-30T05:39:09.541Z,15.70
2018-04-30T05:41:37.102Z,15.60
2018-04-30T05:44:04.582Z,15.50
2018-04-30T05:46:32.081Z,15.50
2018-04-30T05:48:59.772Z,15.50
2018-04-30T05:51:27.229Z,15.50
2018-04-30T05:53:54.685Z,15.50
2018-04-30T05:56:22.332Z,15.50
2018-04-30T05:58:49.799Z,15.50
2018-04-30T06:01:17.363Z,15.50
2018-04-30T06:03:44.992Z,15.50
2018-04-30T06:06:12.464Z,15.50
2018-04-30T06:08:39.914Z,15.40
2018-04-30T06:11:07.377Z,15.40
2018-04-30T06:13:34.829Z,15.50
2018-04-30T06:16:02.338Z,15.40
2018-04-30T06:18:29.785Z,15.40
2018-04-30T06:20:58.174Z,15.40
2018-04-30T06:23:25.632Z,15.30
2018-04-30T06:25:53.162Z,15.30
2018-04-30T06:28:20.933Z,15.30
2018-04-30T06:30:49.614Z,15.20
2018-04-30T06:33:17.072Z,15.30
2018-04-30T06:35:44.560Z,15.30
2018-04-30T06:38:12.013Z,15.20
2018-04-30T06:40:39.469Z,15.20
2018-04-30T06:43:07.701Z,15.10
2018-04-30T06:45:35.173Z,15.10
2018-04-30T06:48:02.636Z,15.10
2018-04-30T06:50:30.083Z,15.00
2018-04-30T06:52:57.599Z,15.10
2018-04-30T06:55:25.059Z,15.00
2018-04-30T06:57:52.514Z,14.90
2018-04-30T07:00:20.017Z,15.00
2018-04-30T07:02:47.464Z,15.00
2018-04-30T07:05:14.916Z,15.00
2018-04-30T07:07:42.368Z,15.00
2018-04-30T07:10:10.461Z,15.00
2018-04-30T07:12:37.917Z,15.00
2018-04-30T07:15:05.570Z,15.00
2018-04-30T07:17:33.024Z,14.90
2018-04-30T07:20:00.534Z,14.80
2018-04-30T07:22:27.958Z,14.80
2018-04-30T07:24:55.498Z,14.90
2018-04-30T07:27:22.962Z,14.80
2018-04-30T07:29:50.597Z,14.90
2018-04-30T07:32:18.053Z,14.90
2018-04-30T07:34:46.292Z,14.90
2018-04-30T07:37:13.865Z,14.90
2018-04-30T07:39:41.332Z,15.00
2018-04-30T07:42:08.793Z,15.00
2018-04-30T07:44:36.337Z,15.00
2018-04-30T07:47:04.001Z,15.00
2018-04-30T07:49:31.469Z,15.00
2018-04-30T07:51:58.978Z,15.10
2018-04-30T07:54:26.440Z,15.10
2018-04-30T07:56:53.901Z,15.20
2018-04-30T07:59:21.435Z,15.20
2018-04-30T08:01:48.907Z,15.20
2018-04-30T08:04:16.652Z,15.30
2018-04-30T08:06:44.413Z,15.40
2018-04-30T08:09:11.928Z,15.50
2018-04-30T08:11:39.633Z,15.60
2018-04-30T08:14:07.281Z,15.80
2018-04-30T08:16:34.846Z,15.80
2018-04-30T08:19:02.313Z,15.90
2018-04-30T08:21:30.145Z,15.90
2018-04-30T08:23:58.639Z,16.00
2018-04-30T08:26:26.145Z,16.00
2018-04-30T08:28:53.601Z,16.00
2018-04-30T08:31:21.061Z,16.00
2018-04-30T08:33:49.518Z,16.00
2018-04-30T08:36:17.272Z,16.00
2018-04-30T08:38:44.923Z,16.20
2018-04-30T08:41:12.407Z,16.20
2018-04-30T08:43:39.952Z,16.20
2018-04-30T08:46:07.417Z,16.30
2018-04-30T08:48:35.187Z,16.20
2018-04-30T08:51:02.893Z,16.20
2018-04-30T08:53:30.402Z,16.20
2018-04-30T08:55:57.876Z,16.30
2018-04-30T08:58:25.445Z,16.20
2018-04-30T09:00:52.908Z,16.20
2018-04-30T09:03:20.441Z,16.10
2018-04-30T09:05:47.908Z,16.20
2018-04-30T09:08:15.361Z,16.20
2018-04-30T09:10:42.824Z,16.30
2018-04-30T09:13:10.280Z,16.40
2018-04-30T09:15:37.744Z,16.60
2018-04-30T09:18:05.193Z,16.80
2018-04-30T09:20:32.660Z,16.90
2018-04-30T09:23:00.114Z,17.00
2018-04-30T09:25:27.654Z,17.00
2018-04-30T09:27:55.101Z,17.10
2018-04-30T09:30:22.870Z,17.30
2018-04-30T09:32:50.531Z,17.30
2018-04-30T09:35:18.004Z,17.30
2018-04-30T09:37:45.468Z,17.30
2018-04-30T09:40:12.991Z,17.30
2018-04-30T09:42:40.638Z,17.20
2018-04-30T09:45:08.214Z,17.20
2018-04-30T09:47:35.849Z,17.30
2018-04-30T09:50:03.433Z,17.40
2018-04-30T09:52:30.905Z,17.50
2018-04-30T09:54:58.732Z,17.50
2018-04-30T09:57:26.197Z,17.50
2018-04-30T09:59:53.868Z,17.60
2018-04-30T10:02:21.352Z,17.80
2018-04-30T10:04:50.021Z,17.80
2018-04-30T10:07:17.851Z,17.80
2018-04-30T10:09:45.232Z,17.80
2018-04-30T10:12:12.878Z,17.90
2018-04-30T10:14:40.357Z,17.90
2018-04-30T10:17:07.841Z,18.00
2018-04-30T10:19:35.289Z,18.10
2018-04-30T10:22:02.783Z,18.10
2018-04-30T10:24:30.241Z,18.00
2018-04-30T10:26:57.742Z,18.00
2018-04-30T10:29:25.501Z,18.00
2018-04-30T10:31:52.956Z,18.10
2018-04-30T10:34:20.420Z,18.10
2018-04-30T10:36:48.046Z,18.10
2018-04-30T10:39:15.592Z,18.10
2018-04-30T10:41:43.043Z,18.20
2018-04-30T10:44:10.508Z,18.30
2018-04-30T10:46:37.961Z,18.40
2018-04-30T10:49:05.421Z,18.50
2018-04-30T10:51:32.887Z,18.40
2018-04-30T10:54:00.340Z,18.40
2018-04-30T10:56:27.834Z,18.50
2018-04-30T10:58:55.302Z,18.60
2018-04-30T11:01:22.767Z,18.70
2018-04-30T11:03:51.006Z,18.60
2018-04-30T11:06:18.465Z,18.60
2018-04-30T11:08:45.924Z,18.70
2018-04-30T11:11:13.384Z,18.70
2018-04-30T11:13:40.840Z,18.70
2018-04-30T11:16:08.307Z,18.70
2018-04-30T11:18:35.760Z,18.60
2018-04-30T11:21:03.327Z,18.70
2018-04-30T11:23:31.084Z,18.70
2018-04-30T11:25:58.589Z,18.70
2018-04-30T11:28:26.061Z,18.70
2018-04-30T11:30:53.518Z,18.70
2018-04-30T11:33:20.975Z,18.70
2018-04-30T11:35:48.451Z,18.70
2018-04-30T11:38:15.921Z,18.80
2018-04-30T11:40:43.373Z,19.00
2018-04-30T11:43:10.840Z,19.00
2018-04-30T11:45:38.309Z,19.00
2018-04-30T11:48:06.553Z,19.00
2018-04-30T11:50:34.041Z,19.00
2018-04-30T11:53:01.723Z,19.00
2018-04-30T11:55:29.173Z,19.00
2018-04-30T11:57:56.667Z,19.10
2018-04-30T12:00:24.125Z,19.10
2018-04-30T12:02:51.592Z,19.00
2018-04-30T12:05:19.096Z,18.90
2018-04-30T12:07:46.773Z,18.80
2018-04-30T12:10:14.301Z,18.90
2018-04-30T12:12:42.074Z,18.90
2018-04-30T12:15:09.545Z,18.80
2018-04-30T12:17:37.308Z,19.00
2018-04-30T12:20:04.774Z,19.10
2018-04-30T12:22:32.433Z,19.30
2018-04-30T12:24:59.886Z,19.40
2018-04-30T12:27:27.336Z,19.40
2018-04-30T12:29:54.800Z,19.50
2018-04-30T12:32:22.397Z,19.60
2018-04-30T12:34:50.103Z,19.70
2018-04-30T12:37:17.565Z,19.80
2018-04-30T12:39:45.315Z,19.90
2018-04-30T12:42:13.076Z,19.80
2018-04-30T12:44:40.840Z,19.90
2018-04-30T12:47:08.769Z,20.10
2018-04-30T12:49:36.403Z,20.10
2018-04-30T12:52:04.137Z,20.10
2018-04-30T12:54:31.898Z,20.20
2018-04-30T12:56:59.539Z,20.00
2018-04-30T12:59:27.609Z,19.90
2018-04-30T13:01:55.101Z,19.90
2018-04-30T13:04:22.577Z,19.90
2018-04-30T13:06:50.110Z,20.00
2018-04-30T13:09:17.865Z,20.00
2018-04-30T13:11:45.336Z,20.00
2018-04-30T13:14:12.813Z,20.00
2018-04-30T13:16:40.461Z,20.00
2018-04-30T13:19:07.916Z,20.00
2018-04-30T13:21:35.388Z,20.00
2018-04-30T13:24:02.856Z,20.10
2018-04-30T13:26:30.329Z,20.10
2018-04-30T13:28:57.785Z,20.10
2018-04-30T13:31:25.249Z,20.20
2018-04-30T13:33:52.738Z,20.30
2018-04-30T13:36:20.229Z,20.40
2018-04-30T13:38:47.823Z,20.60
2018-04-30T13:41:15.278Z,20.60
2018-04-30T13:43:42.798Z,20.60
2018-04-30T13:46:10.209Z,20.50
2018-04-30T13:48:37.657Z,20.50
2018-04-30T13:51:05.249Z,20.60
2018-04-30T13:53:32.701Z,20.70
2018-04-30T13:56:00.161Z,20.80
2018-04-30T13:58:27.613Z,21.10
2018-04-30T14:00:55.085Z,21.70
2018-04-30T14:03:24.066Z,22.60
2018-04-30T14:05:51.534Z,22.60
2018-04-30T14:08:19.001Z,23.90
2018-04-30T14:10:46.454Z,24.20
2018-04-30T14:13:14.055Z,24.20
2018-04-30T14:15:41.525Z,24.00
2018-04-30T14:18:08.984Z,23.70
2018-04-30T14:20:36.442Z,23.60
2018-04-30T14:23:04.954Z,23.50
2018-04-30T14:25:32.457Z,23.50
2018-04-30T14:27:59.917Z,23.60
2018-04-30T14:30:27.374Z,23.80
2018-04-30T14:32:54.833Z,24.30
2018-04-30T14:35:23.018Z,25.20
2018-04-30T14:37:50.481Z,25.60
2018-04-30T14:40:17.937Z,25.70
2018-04-30T14:42:45.421Z,25.30
2018-04-30T14:45:12.885Z,24.50
2018-04-30T14:47:40.341Z,23.60
2018-04-30T14:50:07.802Z,23.00
2018-04-30T14:52:35.263Z,22.70
2018-04-30T14:55:02.717Z,22.30
2018-04-30T14:57:30.177Z,22.20
2018-04-30T14:59:57.649Z,22.70
2018-04-30T15:02:25.910Z,23.50
2018-04-30T15:04:53.474Z,23.50
2018-04-30T15:07:20.974Z,22.90
2018-04-30T15:09:48.459Z,22.50
2018-04-30T15:12:15.930Z,22.20
2018-04-30T15:14:43.419Z,22.10
2018-04-30T15:17:11.512Z,22.40
2018-04-30T15:19:39.102Z,22.50
2018-04-30T15:22:08.099Z,21.80
2018-04-30T15:24:35.616Z,21.80
2018-04-30T15:27:03.114Z,21.60
2018-04-30T15:29:30.608Z,21.40
2018-04-30T15:31:58.103Z,21.20
2018-04-30T15:34:25.586Z,21.20
2018-04-30T15:36:53.093Z,21.10
2018-04-30T15:39:21.346Z,21.30
2018-04-30T15:41:48.838Z,21.30
2018-04-30T15:44:17.103Z,21.30
2018-04-30T15:46:44.606Z,21.10
2018-04-30T15:49:12.123Z,21.00
2018-04-30T15:51:39.650Z,20.90
2018-04-30T15:54:07.125Z,20.80
2018-04-30T15:56:35.391Z,20.80
2018-04-30T15:59:02.909Z,20.80
2018-04-30T16:01:30.511Z,20.70
2018-04-30T16:03:58.675Z,20.50
2018-04-30T16:06:26.139Z,20.60
2018-04-30T16:08:53.616Z,20.60
2018-04-30T16:11:21.118Z,20.50
2018-04-30T16:13:48.659Z,20.50
2018-04-30T16:16:16.129Z,20.50
2018-04-30T16:18:43.678Z,20.50
2018-04-30T16:21:11.131Z,20.70
2018-04-30T16:23:38.653Z,20.70
2018-04-30T16:26:06.934Z,20.60
2018-04-30T16:28:34.450Z,20.70
2018-04-30T16:31:01.996Z,20.60
2018-04-30T16:33:29.611Z,20.60
2018-04-30T16:35:57.948Z,20.50
2018-04-30T16:38:25.605Z,20.50
2018-04-30T16:40:53.135Z,20.50
2018-04-30T16:43:20.710Z,20.30
2018-04-30T16:45:48.345Z,20.20
2018-04-30T16:48:15.940Z,20.10
2018-04-30T16:50:43.502Z,20.10
2018-04-30T16:53:11.233Z,20.20
2018-04-30T16:55:38.802Z,20.30
2018-04-30T16:58:06.392Z,20.40
2018-04-30T17:00:33.917Z,20.50
2018-04-30T17:03:01.513Z,20.40
2018-04-30T17:05:29.201Z,20.40
2018-04-30T17:07:56.886Z,20.40
2018-04-30T17:10:24.483Z,20.30
2018-04-30T17:12:52.163Z,20.30
2018-04-30T17:15:19.762Z,20.10
2018-04-30T17:17:48.151Z,19.80
2018-04-30T17:20:15.713Z,19.80
2018-04-30T17:22:43.344Z,19.70
2018-04-30T17:25:11.759Z,19.60
2018-04-30T17:27:39.427Z,19.50
2018-04-30T17:30:06.987Z,19.40
2018-04-30T17:32:35.341Z,19.30
2018-04-30T17:35:02.947Z,19.30
2018-04-30T17:37:30.542Z,19.20
2018-04-30T17:39:58.077Z,19.10
2018-04-30T17:42:25.639Z,19.00
2018-04-30T17:44:53.203Z,19.00
2018-04-30T17:47:20.718Z,19.00
2018-04-30T17:49:48.256Z,19.00
2018-04-30T17:52:15.871Z,18.90
2018-04-30T17:54:44.471Z,18.80
2018-04-30T17:57:12.116Z,18.80
2018-04-30T17:59:39.663Z,18.80
2018-04-30T18:02:07.259Z,18.70
2018-04-30T18:04:34.948Z,18.60
2018-04-30T18:07:02.757Z,18.60
2018-04-30T18:09:30.161Z,18.60
2018-04-30T18:11:59.018Z,18.60
2018-04-30T18:14:26.609Z,18.60
2018-04-30T18:16:54.145Z,18.60
2018-04-30T18:19:21.649Z,18.50
2018-04-30T18:21:49.160Z,18.40
2018-04-30T18:24:16.698Z,18.40
2018-04-30T18:26:44.244Z,18.30
2018-04-30T18:29:11.745Z,18.20
2018-04-30T18:31:40.124Z,18.50
2018-04-30T18:34:07.677Z,18.30
2018-04-30T18:36:35.187Z,18.10
2018-04-30T18:39:02.717Z,18.10
2018-04-30T18:41:31.792Z,18.00
2018-04-30T18:43:59.285Z,17.90
2018-04-30T18:46:26.825Z,17.90
2018-04-30T18:48:54.315Z,17.90
2018-04-30T18:51:22.109Z,17.80
2018-04-30T18:53:49.592Z,17.80
2018-04-30T18:56:17.844Z,17.70
2018-04-30T18:58:45.335Z,17.60
2018-04-30T19:01:12.854Z,17.70
2018-04-30T19:03:40.340Z,17.60
2018-04-30T19:06:07.825Z,17.50
2018-04-30T19:08:35.318Z,17.40
2018-04-30T19:11:02.851Z,17.30
2018-04-30T19:13:30.333Z,17.20
2018-04-30T19:15:57.860Z,17.10
2018-04-30T19:18:25.324Z,17.20
2018-04-30T19:20:52.812Z,17.20
2018-04-30T19:23:20.316Z,17.20
2018-04-30T19:25:48.587Z,17.10
2018-04-30T19:28:16.061Z,17.00
2018-04-30T19:30:43.619Z,17.00
2018-04-30T19:33:11.165Z,17.00
2018-04-30T19:35:38.703Z,17.00
2018-04-30T19:38:06.231Z,16.90
2018-04-30T19:40:33.716Z,16.90
2018-04-30T19:43:01.255Z,16.90
2018-04-30T19:45:28.853Z,16.80
2018-04-30T19:47:56.274Z,16.70
2018-04-30T19:50:23.882Z,16.80
2018-04-30T19:52:51.485Z,16.70
2018-04-30T19:55:19.015Z,16.70
2018-04-30T19:57:47.400Z,16.60
2018-04-30T20:00:15.035Z,16.50
2018-04-30T20:02:42.545Z,16.50
2018-04-30T20:05:10.054Z,16.50
2018-04-30T20:07:37.544Z,16.50
2018-04-30T20:10:05.091Z,16.50
2018-04-30T20:12:32.584Z,16.40
2018-04-30T20:15:00.148Z,16.30
2018-04-30T20:17:27.665Z,16.30
2018-04-30T20:19:55.297Z,16.30
2018-04-30T20:22:22.892Z,16.20
2018-04-30T20:24:50.389Z,16.20
2018-04-30T20:27:17.909Z,16.20
2018-04-30T20:29:45.416Z,16.20
2018-04-30T20:32:12.956Z,16.10
2018-04-30T20:34:41.490Z,16.20
2018-04-30T20:37:09.737Z,16.10
2018-04-30T20:39:37.218Z,16.10
2018-04-30T20:42:04.708Z,16.10
2018-04-30T20:44:32.279Z,16.10
2018-04-30T20:47:00.503Z,16.10
2018-04-30T20:49:28.776Z,16.00
2018-04-30T20:51:56.321Z,16.00
2018-04-30T20:54:23.824Z,16.00
2018-04-30T20:56:51.380Z,16.00
2018-04-30T20:59:18.855Z,15.90
2018-04-30T21:01:46.384Z,16.00
2018-04-30T21:04:14.278Z,16.00
2018-04-30T21:06:42.035Z,15.90
2018-04-30T21:09:14.486Z,15.80
2018-04-30T21:11:42.722Z,15.80
2018-04-30T21:14:10.188Z,15.70
2018-04-30T21:16:37.683Z,15.70
2018-04-30T21:19:05.158Z,15.70
2018-04-30T21:21:32.638Z,15.70
2018-04-30T21:24:00.107Z,15.70
2018-04-30T21:26:27.588Z,15.60
2018-04-30T21:28:55.063Z,15.60
2018-04-30T21:31:23.308Z,15.50
2018-04-30T21:33:50.812Z,15.50
2018-04-30T21:36:18.302Z,15.60
2018-04-30T21:38:45.824Z,15.50
2018-04-30T21:41:13.327Z,15.50
2018-04-30T21:43:40.832Z,15.40
2018-04-30T21:46:08.320Z,15.40
2018-04-30T21:48:35.868Z,15.30
2018-04-30T21:51:03.358Z,15.30
2018-04-30T21:53:30.863Z,15.20
2018-04-30T21:55:59.131Z,15.30
2018-04-30T21:58:26.648Z,15.30
2018-04-30T22:00:54.115Z,15.30
2018-04-30T22:03:21.628Z,15.20
2018-04-30T22:05:49.107Z,15.20
2018-04-30T22:08:16.627Z,15.10
2018-04-30T22:10:44.077Z,15.10
2018-04-30T22:13:11.543Z,15.10
2018-04-30T22:15:38.996Z,15.10
2018-04-30T22:18:06.475Z,15.00
2018-04-30T22:20:33.925Z,15.00
2018-04-30T22:23:01.393Z,15.00
2018-04-30T22:25:28.885Z,15.00
2018-04-30T22:27:56.646Z,14.90
2018-04-30T22:30:24.291Z,14.90
2018-04-30T22:32:51.780Z,14.90
2018-04-30T22:35:19.250Z,14.90
2018-04-30T22:37:46.705Z,14.90
2018-04-30T22:40:14.245Z,14.90
2018-04-30T22:42:41.716Z,14.90
2018-04-30T22:45:09.340Z,14.80
2018-04-30T22:47:36.920Z,14.80
2018-04-30T22:50:04.685Z,14.90
2018-04-30T22:52:32.165Z,14.90
2018-04-30T22:54:59.849Z,14.80
2018-04-30T22:57:27.365Z,14.80
2018-04-30T22:59:55.124Z,14.90
2018-04-30T23:02:22.760Z,14.90
2018-04-30T23:04:50.216Z,14.80
2018-04-30T23:07:17.665Z,14.70
2018-04-30T23:09:45.133Z,14.70
2018-04-30T23:12:12.721Z,14.70
2018-04-30T23:14:40.452Z,14.60
2018-04-30T23:17:07.936Z,14.50
2018-04-30T23:19:35.398Z,14.50
2018-04-30T23:22:02.860Z,14.50
2018-04-30T23:24:30.390Z,14.50
2018-04-30T23:26:58.080Z,14.50
2018-04-30T23:29:25.528Z,14.50
2018-04-30T23:31:52.988Z,14.50
2018-04-30T23:34:20.470Z,14.50
2018-04-30T23:36:47.933Z,14.40
2018-04-30T23:39:15.574Z,14.40
2018-04-30T23:41:43.125Z,14.30
2018-04-30T23:44:10.585Z,14.40
2018-04-30T23:46:38.343Z,14.40
2018-04-30T23:49:05.801Z,14.40
2018-04-30T23:51:33.264Z,14.40
2018-04-30T23:54:00.892Z,14.40
2018-04-30T23:56:28.381Z,14.40
2018-04-30T23:58:55.854Z,14.40
